createdAt,value
2018-08-20T00:01:51.922Z,22.31
2018-08-20T00:04:19.959Z,22.30
2018-08-20T00:06:54.868Z,22.29
2018-08-20T00:09:34.355Z,22.28
2018-08-20T00:12:02.527Z,22.29
2018-08-20T00:14:30.742Z,22.28
2018-08-20T00:16:58.987Z,22.28
2018-08-20T00:19:27.097Z,22.26
2018-08-20T00:21:55.218Z,22.24
2018-08-20T00:24:23.307Z,22.24
2018-08-20T00:26:51.347Z,22.22
2018-08-20T00:29:19.411Z,22.22
2018-08-20T00:31:49.017Z,22.21
2018-08-20T00:34:17.083Z,22.19
2018-08-20T00:36:45.715Z,22.17
2018-08-20T00:39:13.770Z,22.13
2018-08-20T00:41:41.845Z,22.13
2018-08-20T00:44:12.408Z,22.15
2018-08-20T00:46:40.835Z,22.15
2018-08-20T00:49:08.875Z,22.15
2018-08-20T00:51:36.921Z,22.14
2018-08-20T00:54:04.988Z,22.12
2018-08-20T00:56:33.047Z,22.13
2018-08-20T00:59:01.732Z,22.12
2018-08-20T01:01:29.811Z,22.12
2018-08-20T01:03:57.955Z,22.10
2018-08-20T01:06:26.047Z,22.10
2018-08-20T01:08:54.124Z,22.08
2018-08-20T01:11:22.295Z,22.06
2018-08-20T01:13:50.432Z,22.07
2018-08-20T01:16:18.491Z,22.05
2018-08-20T01:18:46.567Z,22.04
2018-08-20T01:21:14.664Z,22.04
2018-08-20T01:23:43.100Z,22.03
2018-08-20T01:28:45.494Z,22.01
2018-08-20T01:31:13.594Z,21.99
2018-08-20T01:33:41.665Z,21.99
2018-08-20T01:36:09.739Z,21.97
2018-08-20T01:38:37.803Z,21.96
2018-08-20T01:41:05.872Z,21.97
2018-08-20T01:43:33.943Z,21.97
2018-08-20T01:46:02.060Z,21.97
2018-08-20T01:48:30.139Z,21.95
2018-08-20T01:50:58.207Z,21.94
2018-08-20T01:53:26.283Z,21.93
2018-08-20T01:55:54.390Z,21.91
2018-08-20T01:58:22.469Z,21.90
2018-08-20T02:00:50.509Z,21.90
2018-08-20T02:03:18.674Z,21.89
2018-08-20T02:05:46.757Z,21.88
2018-08-20T02:08:14.839Z,21.87
2018-08-20T02:10:42.930Z,21.86
2018-08-20T02:13:11.012Z,21.84
2018-08-20T02:15:39.177Z,21.81
2018-08-20T02:18:08.972Z,21.80
2018-08-20T02:20:37.061Z,21.78
2018-08-20T02:23:05.207Z,21.78
2018-08-20T02:25:33.269Z,21.76
2018-08-20T02:28:01.357Z,21.74
2018-08-20T02:30:29.431Z,21.74
2018-08-20T02:32:57.626Z,21.73
2018-08-20T02:35:25.774Z,21.68
2018-08-20T02:37:53.904Z,21.66
2018-08-20T02:40:22.023Z,21.63
2018-08-20T02:42:50.127Z,21.52
2018-08-20T02:45:19.028Z,21.61
2018-08-20T02:47:47.501Z,21.61
2018-08-20T02:50:16.199Z,21.60
2018-08-20T02:52:44.988Z,21.59
2018-08-20T02:55:13.209Z,21.57
2018-08-20T02:57:41.294Z,21.55
2018-08-20T03:00:11.605Z,21.55
2018-08-20T03:02:39.672Z,21.53
2018-08-20T03:05:08.084Z,21.51
2018-08-20T03:07:36.178Z,21.48
2018-08-20T03:10:05.792Z,21.48
2018-08-20T03:12:33.874Z,21.44
2018-08-20T03:15:01.959Z,21.43
2018-08-20T03:17:30.099Z,21.42
2018-08-20T03:19:58.133Z,21.39
2018-08-20T03:22:26.317Z,21.39
2018-08-20T03:24:54.399Z,21.39
2018-08-20T03:27:22.472Z,21.39
2018-08-20T03:29:50.553Z,21.39
2018-08-20T03:32:18.664Z,21.36
2018-08-20T03:34:46.749Z,21.36
2018-08-20T03:37:14.791Z,21.35
2018-08-20T03:39:42.864Z,21.35
2018-08-20T03:42:10.947Z,21.35
2018-08-20T03:44:39.072Z,21.36
2018-08-20T03:47:07.128Z,21.31
2018-08-20T03:49:35.222Z,21.30
2018-08-20T03:52:03.294Z,21.29
2018-08-20T03:54:31.384Z,21.30
2018-08-20T03:56:59.550Z,21.16
2018-08-20T03:59:35.268Z,21.15
2018-08-20T04:02:05.792Z,21.14
2018-08-20T04:04:33.895Z,21.13
2018-08-20T04:07:03.684Z,21.16
2018-08-20T04:09:32.450Z,21.16
2018-08-20T04:12:01.514Z,21.16
2018-08-20T04:14:29.669Z,21.13
2018-08-20T04:16:58.008Z,21.12
2018-08-20T04:19:26.187Z,21.11
2018-08-20T04:21:54.301Z,21.11
2018-08-20T04:24:22.469Z,21.11
2018-08-20T04:26:51.174Z,21.10
2018-08-20T04:29:19.747Z,21.07
2018-08-20T04:31:48.136Z,21.05
2018-08-20T04:34:16.248Z,21.05
2018-08-20T04:36:44.348Z,21.01
2018-08-20T04:39:12.455Z,20.98
2018-08-20T04:41:40.884Z,20.94
2018-08-20T04:44:09.672Z,20.86
2018-08-20T04:46:37.870Z,20.89
2018-08-20T04:49:06.010Z,20.86
2018-08-20T04:51:34.195Z,20.83
2018-08-20T04:54:02.214Z,20.78
2018-08-20T04:56:30.305Z,20.71
2018-08-20T04:58:58.407Z,20.63
2018-08-20T05:01:26.495Z,20.57
2018-08-20T05:03:54.638Z,20.54
2018-08-20T05:06:22.686Z,20.55
2018-08-20T05:08:50.835Z,20.53
2018-08-20T05:11:18.927Z,20.54
2018-08-20T05:13:47.032Z,20.56
2018-08-20T05:16:15.138Z,20.59
2018-08-20T05:18:43.248Z,20.64
2018-08-20T05:21:11.348Z,20.67
2018-08-20T05:23:39.480Z,20.70
2018-08-20T05:26:07.611Z,20.71
2018-08-20T05:28:35.701Z,20.75
2018-08-20T05:31:03.799Z,20.78
2018-08-20T05:33:32.184Z,20.79
2018-08-20T05:36:00.329Z,20.84
2018-08-20T05:38:28.382Z,20.89
2018-08-20T05:40:56.473Z,20.88
2018-08-20T05:43:24.572Z,20.79
2018-08-20T05:45:52.803Z,20.85
2018-08-20T05:48:20.923Z,20.85
2018-08-20T05:50:49.146Z,20.92
2018-08-20T05:53:17.246Z,20.95
2018-08-20T05:55:45.363Z,21.00
2018-08-20T05:58:13.655Z,21.03
2018-08-20T06:00:41.767Z,21.09
2018-08-20T06:03:10.023Z,21.08
2018-08-20T06:05:38.135Z,21.11
2018-08-20T06:08:06.276Z,21.15
2018-08-20T06:10:34.380Z,21.19
2018-08-20T06:13:02.555Z,21.17
2018-08-20T06:15:30.669Z,21.14
2018-08-20T06:17:58.793Z,21.21
2018-08-20T06:20:26.909Z,21.26
2018-08-20T06:22:55.965Z,21.28
2018-08-20T06:25:24.100Z,21.29
2018-08-20T06:27:52.252Z,21.30
2018-08-20T06:30:20.425Z,21.32
2018-08-20T06:32:48.529Z,21.33
2018-08-20T06:35:16.664Z,21.36
2018-08-20T06:37:44.745Z,21.42
2018-08-20T06:40:14.063Z,21.48
2018-08-20T06:42:42.142Z,21.55
2018-08-20T06:45:13.412Z,21.60
2018-08-20T06:47:42.305Z,21.65
2018-08-20T06:50:10.372Z,21.65
2018-08-20T06:52:38.773Z,21.66
2018-08-20T06:55:06.862Z,21.65
2018-08-20T06:57:34.954Z,21.67
2018-08-20T07:00:03.067Z,21.65
2018-08-20T07:02:31.123Z,21.69
2018-08-20T07:04:59.264Z,21.74
2018-08-20T07:07:27.413Z,21.82
2018-08-20T07:09:55.515Z,21.85
2018-08-20T07:12:23.654Z,21.87
2018-08-20T07:14:51.696Z,21.88
2018-08-20T07:17:19.769Z,21.91
2018-08-20T07:19:47.903Z,21.97
2018-08-20T07:22:16.032Z,22.04
2018-08-20T07:24:44.115Z,22.09
2018-08-20T07:27:12.246Z,22.13
2018-08-20T07:29:45.077Z,22.19
2018-08-20T07:32:14.390Z,22.26
2018-08-20T07:34:43.559Z,22.34
2018-08-20T07:37:13.696Z,22.43
2018-08-20T07:39:43.250Z,22.50
2018-08-20T07:42:11.474Z,22.55
2018-08-20T07:44:40.450Z,22.60
2018-08-20T07:47:08.945Z,22.63
2018-08-20T07:49:37.056Z,22.62
2018-08-20T07:52:05.810Z,22.65
2018-08-20T07:54:35.655Z,22.71
2018-08-20T07:57:03.979Z,22.77
2018-08-20T07:59:32.147Z,22.83
2018-08-20T08:02:00.300Z,22.96
2018-08-20T08:04:28.653Z,23.05
2018-08-20T08:06:57.244Z,23.19
2018-08-20T08:09:25.370Z,23.31
2018-08-20T08:11:53.492Z,23.44
2018-08-20T08:14:21.615Z,23.54
2018-08-20T08:16:49.725Z,23.65
2018-08-20T08:19:17.823Z,23.77
2018-08-20T08:21:45.909Z,23.85
2018-08-20T08:24:14.018Z,24.02
2018-08-20T08:26:42.196Z,24.19
2018-08-20T08:29:10.327Z,24.34
2018-08-20T08:31:38.424Z,24.43
2018-08-20T08:34:06.597Z,24.58
2018-08-20T08:36:34.738Z,24.68
2018-08-20T08:39:02.921Z,24.79
2018-08-20T08:41:31.066Z,24.93
2018-08-20T08:43:59.151Z,25.01
2018-08-20T08:46:28.823Z,25.12
2018-08-20T08:48:57.188Z,25.10
2018-08-20T08:51:25.273Z,24.99
2018-08-20T08:53:53.384Z,24.88
2018-08-20T08:56:21.490Z,24.68
2018-08-20T08:58:49.592Z,24.56
2018-08-20T09:01:17.703Z,24.48
2018-08-20T09:03:47.186Z,24.35
2018-08-20T09:06:15.975Z,24.21
2018-08-20T09:08:44.124Z,24.06
2018-08-20T09:11:12.200Z,24.00
2018-08-20T09:13:41.060Z,23.95
2018-08-20T09:16:09.149Z,23.93
2018-08-20T09:18:37.376Z,23.89
2018-08-20T09:21:05.545Z,23.87
2018-08-20T09:23:33.668Z,23.84
2018-08-20T09:26:01.797Z,23.81
2018-08-20T09:28:29.958Z,23.77
2018-08-20T09:30:58.196Z,23.76
2018-08-20T09:33:26.334Z,23.71
2018-08-20T09:35:54.395Z,23.68
2018-08-20T09:38:22.616Z,23.67
2018-08-20T09:40:56.999Z,23.60
2018-08-20T09:43:25.106Z,23.48
2018-08-20T09:45:53.197Z,23.38
2018-08-20T09:48:21.399Z,23.30
2018-08-20T09:50:49.485Z,23.25
2018-08-20T09:53:17.642Z,23.19
2018-08-20T09:55:45.702Z,23.15
2018-08-20T09:58:13.821Z,23.11
2018-08-20T10:00:42.168Z,23.04
2018-08-20T10:03:10.709Z,22.95
2018-08-20T10:05:38.819Z,22.82
2018-08-20T10:08:07.079Z,22.76
2018-08-20T10:10:35.144Z,22.74
2018-08-20T10:13:03.260Z,22.76
2018-08-20T10:15:31.457Z,22.82
2018-08-20T10:17:59.613Z,22.83
2018-08-20T10:20:27.728Z,22.85
2018-08-20T10:22:55.954Z,22.86
2018-08-20T10:25:24.031Z,22.87
2018-08-20T10:27:52.539Z,22.88
2018-08-20T10:30:20.778Z,22.93
2018-08-20T10:32:48.869Z,22.97
2018-08-20T10:35:16.957Z,23.00
2018-08-20T10:37:45.196Z,23.02
2018-08-20T10:40:13.158Z,23.09
2018-08-20T10:42:41.256Z,23.21
2018-08-20T10:45:14.523Z,23.34
2018-08-20T10:47:43.258Z,23.50
2018-08-20T10:50:14.920Z,23.65
2018-08-20T10:52:44.159Z,23.76
2018-08-20T10:55:12.227Z,23.87
2018-08-20T10:57:40.359Z,24.02
2018-08-20T11:00:09.311Z,24.19
2018-08-20T11:02:37.444Z,24.36
2018-08-20T11:05:06.597Z,24.52
2018-08-20T11:07:34.762Z,24.55
2018-08-20T11:10:02.830Z,24.61
2018-08-20T11:12:30.932Z,24.58
2018-08-20T11:14:59.002Z,24.52
2018-08-20T11:17:27.174Z,24.50
2018-08-20T11:19:55.563Z,24.45
2018-08-20T11:22:23.654Z,24.35
2018-08-20T11:24:51.735Z,24.22
2018-08-20T11:27:26.226Z,24.19
2018-08-20T11:29:54.299Z,24.22
2018-08-20T11:32:22.392Z,24.27
2018-08-20T11:34:50.547Z,24.24
2018-08-20T11:37:18.719Z,24.52
2018-08-20T11:39:46.836Z,24.68
2018-08-20T11:42:14.963Z,24.89
2018-08-20T11:44:43.154Z,25.07
2018-08-20T11:47:12.224Z,25.18
2018-08-20T11:49:40.310Z,25.24
2018-08-20T11:52:08.380Z,25.29
2018-08-20T11:54:36.472Z,25.30
2018-08-20T11:57:04.565Z,25.32
2018-08-20T11:59:32.646Z,25.47
2018-08-20T12:02:01.047Z,25.56
2018-08-20T12:04:29.105Z,25.63
2018-08-20T12:06:57.280Z,25.75
2018-08-20T12:09:25.316Z,25.68
2018-08-20T12:11:53.377Z,25.79
2018-08-20T12:14:21.472Z,25.78
2018-08-20T12:16:49.589Z,25.82
2018-08-20T12:19:17.675Z,25.93
2018-08-20T12:21:45.772Z,26.15
2018-08-20T12:24:13.885Z,26.33
2018-08-20T12:26:41.951Z,26.45
2018-08-20T12:29:10.052Z,26.56
2018-08-20T12:31:38.123Z,26.56
2018-08-20T12:34:06.215Z,26.65
2018-08-20T12:36:34.299Z,26.72
2018-08-20T12:39:02.459Z,26.84
2018-08-20T12:41:30.588Z,26.84
2018-08-20T12:43:58.687Z,26.81
2018-08-20T12:46:26.828Z,26.60
2018-08-20T12:48:55.053Z,26.47
2018-08-20T12:51:23.151Z,26.38
2018-08-20T12:53:51.252Z,26.26
2018-08-20T12:56:19.380Z,26.02
2018-08-20T12:58:51.907Z,25.84
2018-08-20T13:01:20.021Z,25.73
2018-08-20T13:03:48.918Z,25.68
2018-08-20T13:06:17.118Z,25.54
2018-08-20T13:08:46.323Z,25.62
2018-08-20T13:11:14.779Z,25.72
2018-08-20T13:13:42.990Z,25.81
2018-08-20T13:16:11.262Z,25.79
2018-08-20T13:18:39.296Z,25.84
2018-08-20T13:21:07.364Z,25.83
2018-08-20T13:23:35.550Z,25.85
2018-08-20T13:26:03.689Z,25.80
2018-08-20T13:28:31.749Z,25.75
2018-08-20T13:30:59.908Z,25.83
2018-08-20T13:33:27.997Z,25.84
2018-08-20T13:35:56.128Z,25.93
2018-08-20T13:38:24.233Z,26.12
2018-08-20T13:40:52.316Z,26.25
2018-08-20T13:43:20.487Z,26.38
2018-08-20T13:45:48.660Z,26.49
2018-08-20T13:48:16.819Z,26.47
2018-08-20T13:50:44.897Z,26.55
2018-08-20T13:53:12.984Z,26.56
2018-08-20T13:55:41.061Z,26.60
2018-08-20T13:58:09.252Z,26.66
2018-08-20T14:00:37.368Z,26.70
2018-08-20T14:03:05.456Z,26.57
2018-08-20T14:05:33.569Z,26.61
2018-08-20T14:08:01.712Z,26.73
2018-08-20T14:10:29.794Z,26.79
2018-08-20T14:12:57.847Z,26.73
2018-08-20T14:15:25.991Z,26.73
2018-08-20T14:17:54.117Z,26.57
2018-08-20T14:20:22.228Z,26.69
2018-08-20T14:22:50.284Z,26.53
2018-08-20T14:25:18.373Z,26.67
2018-08-20T14:27:46.453Z,26.70
2018-08-20T14:30:15.467Z,26.69
2018-08-20T14:32:44.013Z,26.64
2018-08-20T14:35:12.415Z,26.61
2018-08-20T14:37:40.900Z,26.55
2018-08-20T14:40:12.696Z,26.50
2018-08-20T14:42:40.906Z,26.48
2018-08-20T14:45:11.412Z,26.47
2018-08-20T14:47:40.588Z,26.48
2018-08-20T14:50:11.973Z,26.45
2018-08-20T14:52:40.268Z,26.52
2018-08-20T14:55:08.767Z,26.54
2018-08-20T14:57:37.024Z,26.55
2018-08-20T15:00:06.703Z,26.54
2018-08-20T15:02:34.811Z,26.53
2018-08-20T15:05:02.891Z,26.49
2018-08-20T15:07:30.980Z,26.29
2018-08-20T15:09:59.108Z,26.21
2018-08-20T15:12:27.151Z,26.20
2018-08-20T15:14:55.287Z,26.17
2018-08-20T15:17:23.377Z,26.21
2018-08-20T15:19:51.450Z,26.17
2018-08-20T15:22:19.532Z,26.21
2018-08-20T15:24:47.640Z,26.25
2018-08-20T15:27:15.706Z,26.16
2018-08-20T15:29:43.838Z,26.19
2018-08-20T15:32:12.063Z,26.05
2018-08-20T15:34:40.112Z,25.98
2018-08-20T15:37:08.506Z,25.80
2018-08-20T15:39:36.702Z,25.68
2018-08-20T15:42:04.655Z,25.55
2018-08-20T15:44:33.021Z,25.25
2018-08-20T15:47:01.110Z,24.93
2018-08-20T15:49:29.196Z,25.00
2018-08-20T15:51:57.321Z,24.96
2018-08-20T15:54:25.739Z,24.91
2018-08-20T15:56:53.802Z,24.83
2018-08-20T15:59:21.933Z,24.84
2018-08-20T16:01:51.429Z,24.79
2018-08-20T16:04:19.534Z,24.79
2018-08-20T16:06:47.620Z,24.54
2018-08-20T16:09:16.969Z,24.60
2018-08-20T16:11:45.128Z,24.67
2018-08-20T16:14:13.230Z,24.53
2018-08-20T16:16:41.355Z,24.43
2018-08-20T16:19:09.594Z,24.25
2018-08-20T16:21:37.679Z,24.35
2018-08-20T16:24:10.830Z,24.38
2018-08-20T16:29:18.611Z,24.32
2018-08-20T16:31:46.848Z,24.33
2018-08-20T16:34:14.981Z,24.36
2018-08-20T16:36:43.241Z,24.38
2018-08-20T16:39:13.311Z,24.38
2018-08-20T16:41:41.397Z,24.40
2018-08-20T16:44:10.590Z,24.43
2018-08-20T16:46:39.123Z,24.49
2018-08-20T16:49:08.341Z,24.55
2018-08-20T16:51:36.488Z,24.57
2018-08-20T16:54:04.609Z,24.59
2018-08-20T16:56:32.911Z,24.62
2018-08-20T16:59:00.990Z,24.68
2018-08-20T17:01:29.113Z,24.67
2018-08-20T17:03:57.235Z,24.71
2018-08-20T17:06:35.880Z,24.55
2018-08-20T17:09:04.471Z,24.51
2018-08-20T17:11:32.760Z,24.13
2018-08-20T17:14:00.967Z,24.24
2018-08-20T17:16:29.151Z,24.14
2018-08-20T17:18:57.336Z,24.02
2018-08-20T17:21:25.889Z,23.99
2018-08-20T17:23:53.968Z,24.01
2018-08-20T17:26:22.100Z,23.99
2018-08-20T17:28:54.768Z,23.99
2018-08-20T17:31:24.800Z,23.84
2018-08-20T17:33:53.181Z,23.72
2018-08-20T17:36:21.766Z,23.69
2018-08-20T17:38:50.136Z,23.70
2018-08-20T17:41:18.444Z,23.66
2018-08-20T17:43:46.792Z,23.63
2018-08-20T17:46:14.967Z,23.54
2018-08-20T17:48:43.327Z,23.53
2018-08-20T17:51:14.088Z,23.51
2018-08-20T17:53:51.424Z,23.50
2018-08-20T17:56:19.724Z,23.51
2018-08-20T17:58:51.891Z,23.49
2018-08-20T18:01:20.065Z,23.51
2018-08-20T18:03:48.169Z,23.44
2018-08-20T18:06:16.251Z,23.42
2018-08-20T18:08:44.409Z,23.38
2018-08-20T18:11:12.511Z,23.33
2018-08-20T18:13:46.780Z,23.30
2018-08-20T18:16:16.104Z,23.25
2018-08-20T18:18:46.861Z,23.16
2018-08-20T18:21:15.027Z,22.97
2018-08-20T18:23:43.140Z,22.81
2018-08-20T18:26:11.240Z,22.77
2018-08-20T18:28:45.344Z,22.78
2018-08-20T18:31:19.880Z,22.78
2018-08-20T18:33:48.296Z,22.75
2018-08-20T18:36:17.680Z,22.64
2018-08-20T18:38:52.217Z,22.67
2018-08-20T18:41:21.942Z,22.60
2018-08-20T18:43:50.197Z,22.57
2018-08-20T18:46:18.636Z,22.50
2018-08-20T18:48:46.713Z,22.53
2018-08-20T18:51:16.030Z,22.55
2018-08-20T18:53:44.141Z,22.50
2018-08-20T18:56:13.743Z,22.42
2018-08-20T18:58:42.971Z,22.41
2018-08-20T19:01:11.411Z,22.40
2018-08-20T19:03:44.752Z,22.38
2018-08-20T19:06:13.144Z,22.34
2018-08-20T19:08:41.832Z,22.28
2018-08-20T19:11:10.920Z,22.24
2018-08-20T19:13:38.993Z,22.20
2018-08-20T19:16:25.566Z,22.17
2018-08-20T19:18:54.067Z,22.15
2018-08-20T19:21:26.403Z,22.14
2018-08-20T19:23:55.432Z,22.12
2018-08-20T19:26:23.807Z,22.12
2018-08-20T19:28:52.257Z,22.10
2018-08-20T19:31:20.380Z,22.04
2018-08-20T19:33:48.495Z,22.01
2018-08-20T19:36:16.786Z,22.00
2018-08-20T19:38:44.862Z,21.86
2018-08-20T19:41:14.783Z,21.92
2018-08-20T19:43:50.063Z,21.91
2018-08-20T19:46:27.296Z,21.89
2018-08-20T19:49:01.608Z,21.85
2018-08-20T19:51:29.707Z,21.88
2018-08-20T19:53:57.788Z,21.78
2018-08-20T19:56:25.845Z,21.80
2018-08-20T19:58:53.990Z,21.74
2018-08-20T20:01:22.102Z,21.77
2018-08-20T20:03:50.912Z,21.73
2018-08-20T20:06:19.175Z,21.74
2018-08-20T20:08:47.278Z,21.73
2018-08-20T20:11:21.979Z,21.73
2018-08-20T20:13:54.407Z,21.74
2018-08-20T20:16:22.755Z,21.67
2018-08-20T20:18:51.376Z,21.62
2018-08-20T20:21:20.083Z,21.65
2018-08-20T20:23:48.365Z,21.67
2018-08-20T20:26:16.549Z,21.65
2018-08-20T20:28:44.612Z,21.59
2018-08-20T20:31:12.823Z,21.59
2018-08-20T20:33:40.921Z,21.58
2018-08-20T20:36:12.278Z,21.58
2018-08-20T20:38:40.448Z,21.56
2018-08-20T20:41:09.026Z,21.50
2018-08-20T20:43:37.999Z,21.47
2018-08-20T20:46:07.767Z,21.50
2018-08-20T20:48:35.863Z,21.50
2018-08-20T20:51:03.947Z,21.52
2018-08-20T20:53:32.040Z,21.52
2018-08-20T20:56:00.168Z,21.52
2018-08-20T20:58:33.573Z,21.48
2018-08-20T21:01:03.174Z,21.43
2018-08-20T21:03:31.312Z,21.44
2018-08-20T21:06:00.107Z,21.45
2018-08-20T21:08:32.719Z,21.44
2018-08-20T21:11:00.812Z,21.45
2018-08-20T21:13:28.906Z,21.46
2018-08-20T21:16:03.227Z,21.49
2018-08-20T21:18:33.555Z,21.49
2018-08-20T21:21:01.785Z,21.49
2018-08-20T21:23:30.022Z,21.50
2018-08-20T21:25:58.245Z,21.49
2018-08-20T21:28:30.842Z,21.44
2018-08-20T21:30:58.970Z,21.37
2018-08-20T21:33:27.069Z,21.35
2018-08-20T21:35:55.188Z,21.35
2018-08-20T21:38:23.245Z,21.22
2018-08-20T21:40:51.332Z,21.16
2018-08-20T21:43:19.396Z,21.20
2018-08-20T21:45:47.487Z,21.21
2018-08-20T21:48:15.603Z,21.22
2018-08-20T21:50:43.679Z,21.24
2018-08-20T21:53:12.032Z,21.25
2018-08-20T21:55:40.111Z,21.22
2018-08-20T21:58:08.214Z,21.16
2018-08-20T22:00:36.342Z,21.11
2018-08-20T22:03:04.384Z,21.08
2018-08-20T22:05:32.455Z,21.05
2018-08-20T22:08:00.597Z,21.01
2018-08-20T22:10:29.752Z,20.98
2018-08-20T22:12:57.897Z,20.95
2018-08-20T22:15:25.972Z,20.90
2018-08-20T22:17:54.086Z,20.87
2018-08-20T22:20:28.928Z,20.87
2018-08-20T22:22:56.966Z,20.86
2018-08-20T22:25:25.067Z,20.89
2018-08-20T22:27:55.792Z,20.85
2018-08-20T22:30:24.479Z,20.81
2018-08-20T22:32:52.557Z,20.79
2018-08-20T22:35:24.699Z,20.79
2018-08-20T22:37:53.104Z,20.76
2018-08-20T22:40:21.686Z,20.78
2018-08-20T22:42:56.064Z,20.77
2018-08-20T22:45:24.146Z,20.78
2018-08-20T22:47:52.566Z,20.80
2018-08-20T22:50:20.644Z,20.83
2018-08-20T22:52:49.870Z,20.83
2018-08-20T22:55:19.112Z,20.87
2018-08-20T22:57:59.164Z,20.85
2018-08-20T23:00:27.740Z,20.81
2018-08-20T23:02:56.655Z,20.82
2018-08-20T23:05:28.789Z,20.81
2018-08-20T23:07:58.862Z,20.80
2018-08-20T23:10:26.931Z,20.83
2018-08-20T23:12:55.012Z,20.84
2018-08-20T23:15:23.083Z,20.85
2018-08-20T23:17:51.194Z,20.84
2018-08-20T23:20:27.393Z,20.81
2018-08-20T23:22:55.471Z,20.80
2018-08-20T23:25:23.549Z,20.80
2018-08-20T23:27:51.613Z,20.81
2018-08-20T23:30:20.135Z,20.81
2018-08-20T23:32:48.388Z,20.81
2018-08-20T23:35:16.482Z,20.84
2018-08-20T23:37:44.620Z,20.81
2018-08-20T23:40:12.703Z,20.81
2018-08-20T23:42:40.816Z,20.84
2018-08-20T23:45:08.896Z,20.85
2018-08-20T23:47:36.976Z,20.84
2018-08-20T23:50:05.578Z,20.81
2018-08-20T23:52:33.688Z,20.82
2018-08-20T23:55:01.766Z,20.84
2018-08-20T23:57:29.919Z,20.83
2018-08-20T23:59:57.964Z,20.82
